ADDS METAR Data INFO
IDs: Format: Raw Decoded Include TAF

Data at: 1008 UTC 22 May 2018

KWAL 220954Z AUTO 13006KT 10SM OVC050 18/16 A3013 RMK AO2 SLP200 T01780156
KWAL 220854Z AUTO 11005KT 10SM CLR 17/16 A3013 RMK AO2 SLP199 T01720156 56010
KWAL 220754Z AUTO 13006KT 10SM CLR 17/16 A3014 RMK AO2 SLP203 T01720156
KWAL 220654Z AUTO 10004KT 10SM BKN070 18/15 A3014 RMK AO2 SLP203 T01780150
KWAL 220554Z AUTO 10005KT 10SM SCT070 18/15 A3016 RMK AO2 SLP209 T01780150 10189 20178 57007
KWAL 220454Z AUTO 11004KT 10SM BKN065 18/14 A3016 RMK AO2 SLP210 T01780144 402500178
KWAL 220354Z AUTO 12003KT 10SM OVC065 18/14 A3018 RMK AO2 SLP215 T01830144
KWAL 220254Z AUTO 12003KT 10SM BKN060 18/14 A3018 RMK AO2 SLP216 T01830144 53002
KWAL 220154Z AUTO 10004KT 10SM CLR 18/14 A3017 RMK AO2 SLP215 T01780144
KWAL 220054Z AUTO 09004KT 10SM CLR 18/14 A3017 RMK AO2 SLP213 T01830139
KWAL 212354Z AUTO 08004KT 10SM CLR 19/13 A3017 RMK AO2 SLP213 T01890133 10222 20189 55002
KWAL 212254Z AUTO 11007KT 10SM CLR 20/13 A3017 RMK AO2 SLP212 T02000128
KWAL 212154Z AUTO 12007KT 10SM CLR 21/13 A3018 RMK AO2 SLP215 T02060128
KWAL 212054Z AUTO 10007KT 10SM CLR 21/12 A3018 RMK AO2 SLP215 T02110122 56009
KWAL 211954Z AUTO 09010KT 10SM CLR 22/12 A3018 RMK AO2 SLP218 T02220122
KWAL 211854Z AUTO 09011KT 10SM CLR 22/14 A3019 RMK AO2 SLP219 T02170139
KWAL 211754Z AUTO 07014KT 10SM CLR 22/14 A3020 RMK AO2 SLP224 T02220144 10228 20211 50001
KWAL 211654Z AUTO 06015G21KT 10SM CLR 22/14 A3021 RMK AO2 SLP227 T02220144
KWAL 211554Z AUTO 06015KT 10SM CLR 22/14 A3021 RMK AO2 SLP226 T02220144
KWAL 211454Z AUTO 06013KT 10SM CLR 22/16 A3020 RMK AO2 SLP223 T02170156 51014
KWAL 211354Z AUTO 05016KT 10SM CLR 22/16 A3019 RMK AO2 SLP221 T02220156
KWAL 211254Z AUTO 05016KT 10SM CLR 22/16 A3017 RMK AO2 SLP215 T02170161
KWAL 211154Z AUTO 05018G22KT 10SM CLR 21/16 A3016 RMK AO2 SLP209 60001 70002 T02110161 10233 20206 51026
KWAL 211054Z AUTO 05015G20KT 10SM CLR 21/17 A3014 RMK AO2 SLP203 T02110172
KWAL 211013Z AUTO 05014G22KT 10SM SCT017 21/18 A3012 RMK AO2 T02110183
KWAL 210954Z AUTO 04010KT 10SM OVC015 21/19 A3010 RMK AO2 SLP191 T02110194
KWAL 210929Z AUTO 04009KT 10SM BKN013 BKN018 OVC090 21/21 A3010 RMK AO2 T02110206
KWAL 210854Z AUTO 06004KT 7SM FEW009 BKN080 21/20 A3008 RMK AO2 SLP184 60001 T02060200 53014
KWAL 210844Z AUTO 05005KT 7SM SCT009 SCT080 21/21 A3008 RMK AO2 T02110206
KWAL 210821Z AUTO 07006KT 7SM BKN009 BKN024 22/21 A3008 RMK AO2 CIG 008V013 T02170211
KWAL 210814Z AUTO 07007KT 7SM SCT009 BKN013 OVC025 22/21 A3007 RMK AO2 T02220211
KWAL 210805Z AUTO 06005KT 7SM BKN009 BKN013 OVC025 22/22 A3007 RMK AO2 T02220217
KWAL 210754Z AUTO 05008KT 7SM SCT008 BKN015 OVC065 23/22 A3007 RMK AO2 LTG DSNT E SLP179 T02280222
KWAL 210745Z AUTO 06006KT 5SM BR SCT012 BKN018 OVC060 23/23 A3007 RMK AO2 T02330228
KWAL 210654Z AUTO 28005KT 10SM FEW050 SCT075 BKN110 23/23 A3005 RMK AO2 LTG DSNT SE RAE05B41E54 SLP172 P0001 T02330228
KWAL 210554Z AUTO 26008KT 8SM -RA SCT100 SCT110 25/23 A3004 RMK AO2 RAB48 SLP170 P0001 60001 T02500228 10250 20211 57005
KWAL 210454Z AUTO 24005KT 10SM CLR 23/22 A3005 RMK AO2 SLP172 T02330217 402940200
KWAL 210354Z AUTO 24005KT 10SM CLR 24/22 A3005 RMK AO2 SLP174 T02390217
KWAL 210254Z AUTO 21004KT 10SM CLR 22/21 A3006 RMK AO2 SLP175 T02170206 53008
KWAL 210154Z AUTO 20005KT 10SM CLR 22/21 A3005 RMK AO2 SLP172 T02220211
KWAL 210054Z AUTO 20006KT 10SM CLR 22/21 A3004 RMK AO2 SLP169 T02220211
KWAL 202354Z AUTO 19005KT 10SM CLR 23/21 A3003 RMK AO2 SLP167 T02330211 10294 20233 53002
KWAL 202254Z AUTO 19004KT 10SM CLR 27/22 A3002 RMK AO2 SLP162 T02720222